Time;durP1;ratioP1;P1;durP2;ratioP2;P2;SDS_P1;SDS_P2;PMS_P1;PMS_P2;Temp;Humidity;BMP_temperature;BMP_pressure;BME280_temperature;BME280_humidity;BME280_pressure;Samples;Min_cycle;Max_cycle;Signal;HPM_P1;HPM_P2
2023/03/06 00:00:19;;;;;;;8.48;2.90;;;3.80;99.90;;;;;;5056802;28;20509;-45
2023/03/06 00:02:45;;;;;;;7.20;2.80;;;3.80;99.90;;;;;;5063920;28;20025;-46
2023/03/06 00:05:12;;;;;;;13.82;3.63;;;3.80;99.90;;;;;;5065717;28;20684;-47
2023/03/06 00:07:37;;;;;;;5.00;3.03;;;3.80;99.90;;;;;;5053079;28;20108;-45
2023/03/06 00:10:03;;;;;;;12.85;2.83;;;3.70;99.90;;;;;;5055735;28;20113;-45
2023/03/06 00:12:29;;;;;;;9.10;4.10;;;3.80;99.90;;;;;;5060660;28;20021;-45
2023/03/06 00:14:54;;;;;;;4.85;2.60;;;3.80;99.90;;;;;;5051534;28;20514;-45
2023/03/06 00:17:20;;;;;;;5.32;2.72;;;3.80;99.90;;;;;;5064058;28;20033;-45
2023/03/06 00:19:46;;;;;;;8.52;2.75;;;3.80;99.90;;;;;;5055889;28;20074;-45
2023/03/06 00:22:14;;;;;;;6.95;2.63;;;3.80;99.90;;;;;;5057304;28;20052;-45
2023/03/06 00:24:41;;;;;;;5.13;2.20;;;3.80;99.90;;;;;;5063284;28;20377;-46
2023/03/06 00:27:08;;;;;;;5.43;2.80;;;3.80;99.90;;;;;;5049439;28;20036;-48
2023/03/06 00:29:33;;;;;;;5.85;2.50;;;3.80;99.90;;;;;;5054055;28;20617;-48
2023/03/06 00:31:59;;;;;;;11.73;2.58;;;3.70;99.90;;;;;;5059341;28;20028;-45
2023/03/06 00:34:25;;;;;;;4.93;2.40;;;3.80;99.90;;;;;;5064471;28;20035;-46
2023/03/06 00:36:51;;;;;;;7.60;2.83;;;3.70;99.90;;;;;;5055418;28;20323;-45
2023/03/06 00:39:16;;;;;;;7.80;3.78;;;3.70;99.90;;;;;;5068076;28;20471;-47
2023/03/06 00:41:42;;;;;;;8.48;2.42;;;3.70;99.90;;;;;;5058708;28;20019;-45
2023/03/06 00:44:07;;;;;;;5.25;2.42;;;3.70;99.90;;;;;;5071173;28;20394;-48
2023/03/06 00:46:33;;;;;;;9.18;3.03;;;3.70;99.90;;;;;;5071893;28;20032;-47
2023/03/06 00:48:59;;;;;;;5.60;2.80;;;3.70;99.90;;;;;;5064869;28;20037;-46
2023/03/06 00:51:24;;;;;;;7.28;2.30;;;3.70;99.90;;;;;;5052018;28;20596;-48
2023/03/06 00:53:50;;;;;;;5.72;2.90;;;3.70;99.90;;;;;;5051795;28;20486;-46
2023/03/06 00:56:15;;;;;;;9.02;2.60;;;3.60;99.90;;;;;;5052105;28;20059;-48
2023/03/06 00:58:41;;;;;;;6.50;2.10;;;3.60;99.90;;;;;;5051436;28;20086;-45
2023/03/06 01:01:07;;;;;;;5.63;2.20;;;3.70;99.90;;;;;;5051625;28;20029;-45
2023/03/06 01:03:32;;;;;;;6.70;3.20;;;3.70;99.90;;;;;;5051575;28;20026;-45
2023/03/06 01:05:58;;;;;;;8.23;2.13;;;3.70;99.90;;;;;;5051193;28;20027;-45
2023/03/06 01:08:23;;;;;;;4.45;2.50;;;3.70;99.90;;;;;;5051550;28;20059;-45
2023/03/06 01:10:49;;;;;;;5.88;2.85;;;3.70;99.90;;;;;;5051446;28;20097;-46
2023/03/06 01:13:15;;;;;;;4.45;2.40;;;3.70;99.90;;;;;;5051270;28;20404;-45
2023/03/06 01:15:40;;;;;;;7.65;3.90;;;3.70;99.90;;;;;;5050855;28;20032;-48
2023/03/06 01:18:06;;;;;;;4.10;2.17;;;3.60;99.90;;;;;;5051410;28;20371;-45
2023/03/06 01:20:31;;;;;;;4.53;2.70;;;3.60;99.90;;;;;;5049677;28;20416;-45
2023/03/06 01:22:57;;;;;;;8.63;2.78;;;3.60;99.90;;;;;;5049870;28;20021;-48
2023/03/06 01:25:24;;;;;;;4.70;2.60;;;3.60;99.90;;;;;;5050649;28;20113;-45
2023/03/06 01:27:50;;;;;;;6.75;2.85;;;3.60;99.90;;;;;;5051025;28;20375;-45
2023/03/06 01:30:16;;;;;;;6.50;2.78;;;3.60;99.90;;;;;;5050377;28;20033;-47
2023/03/06 01:32:42;;;;;;;7.45;3.35;;;3.60;99.90;;;;;;5050666;28;20021;-46
2023/03/06 01:35:08;;;;;;;5.47;3.28;;;3.60;99.90;;;;;;5050736;28;20070;-46
2023/03/06 01:37:37;;;;;;;10.27;3.58;;;3.60;99.90;;;;;;5050838;28;20028;-45
2023/03/06 01:40:04;;;;;;;8.30;3.22;;;3.50;99.90;;;;;;5050923;28;20229;-46
2023/03/06 01:42:29;;;;;;;10.10;3.55;;;3.60;99.90;;;;;;5048984;28;20033;-46
2023/03/06 01:45:24;;;;;;;6.18;3.50;;;3.60;99.90;;;;;;5050913;28;20028;-46
2023/03/06 01:47:49;;;;;;;8.60;3.45;;;3.60;99.90;;;;;;5051058;28;20045;-45
2023/03/06 01:50:15;;;;;;;6.53;3.50;;;3.60;99.90;;;;;;5050807;28;20033;-46
2023/03/06 01:52:51;;;;;;;10.98;4.07;;;3.60;99.90;;;;;;5050690;28;20033;-47
2023/03/06 01:55:21;;;;;;;5.88;3.30;;;3.60;99.90;;;;;;5050423;28;20767;-46
2023/03/06 01:57:52;;;;;;;8.13;3.80;;;3.60;99.90;;;;;;5049356;28;20043;-45
2023/03/06 02:00:21;;;;;;;11.10;3.63;;;3.50;99.90;;;;;;5050756;28;20020;-45
2023/03/06 02:02:52;;;;;;;10.43;3.33;;;3.60;99.90;;;;;;5050633;28;20056;-45
2023/03/06 02:05:18;;;;;;;5.20;3.13;;;3.60;99.90;;;;;;5050199;28;20498;-45
2023/03/06 02:07:45;;;;;;;7.95;3.63;;;3.50;99.90;;;;;;5048977;28;20502;-45
2023/03/06 02:10:12;;;;;;;7.57;3.75;;;3.60;99.90;;;;;;5049254;28;20040;-45
2023/03/06 02:12:39;;;;;;;10.07;3.53;;;3.60;99.90;;;;;;5050002;28;20029;-45
2023/03/06 02:15:06;;;;;;;10.43;3.88;;;3.60;99.90;;;;;;5050183;28;20047;-46
2023/03/06 02:17:34;;;;;;;10.10;4.07;;;3.60;99.90;;;;;;5050249;28;20021;-46
2023/03/06 02:20:23;;;;;;;6.55;3.80;;;3.60;99.90;;;;;;5050591;28;20078;-46
2023/03/06 02:23:15;;;;;;;6.57;3.78;;;3.60;99.90;;;;;;5050709;28;20120;-48
2023/03/06 02:25:42;;;;;;;8.40;4.65;;;3.60;99.90;;;;;;5049950;28;20159;-45
2023/03/06 02:28:10;;;;;;;7.78;4.28;;;3.60;99.90;;;;;;5050202;28;20025;-46
2023/03/06 02:30:36;;;;;;;7.95;4.25;;;3.60;99.90;;;;;;5049753;28;20021;-45
2023/03/06 02:33:03;;;;;;;8.88;4.13;;;3.70;99.90;;;;;;5049881;28;20029;-47
2023/03/06 02:35:31;;;;;;;8.35;4.25;;;3.60;99.90;;;;;;5048317;28;20032;-45
2023/03/06 02:38:08;;;;;;;6.97;4.13;;;3.60;99.90;;;;;;5048737;28;20033;-46
2023/03/06 02:40:33;;;;;;;7.45;3.97;;;3.60;99.90;;;;;;5048805;28;20025;-46
2023/03/06 02:43:00;;;;;;;10.75;4.40;;;3.60;99.90;;;;;;5049680;28;20029;-47
2023/03/06 02:45:36;;;;;;;9.40;4.72;;;3.60;99.90;;;;;;5049668;28;20017;-45
2023/03/06 02:48:02;;;;;;;6.82;4.38;;;3.70;99.90;;;;;;5048450;28;20032;-49
2023/03/06 02:50:28;;;;;;;7.65;4.65;;;3.60;99.90;;;;;;5049603;28;20029;-45
2023/03/06 02:52:54;;;;;;;8.32;4.28;;;3.60;99.90;;;;;;5049695;28;20452;-46
2023/03/06 02:55:20;;;;;;;11.18;5.25;;;3.60;99.90;;;;;;5048494;28;20129;-45
2023/03/06 02:57:45;;;;;;;10.65;4.40;;;3.60;99.90;;;;;;5048279;28;20025;-48
2023/03/06 03:00:13;;;;;;;10.20;4.45;;;3.60;99.90;;;;;;5049515;28;20045;-45
2023/03/06 03:02:38;;;;;;;10.93;4.95;;;3.60;99.90;;;;;;5049158;28;20025;-45
2023/03/06 03:05:04;;;;;;;9.85;4.30;;;3.50;99.90;;;;;;5049337;28;20548;-46
2023/03/06 03:07:30;;;;;;;10.77;4.88;;;3.60;99.90;;;;;;5049316;28;20029;-48
2023/03/06 03:09:55;;;;;;;8.52;4.32;;;3.50;99.90;;;;;;5049657;28;20021;-45
2023/03/06 03:12:21;;;;;;;9.98;4.93;;;3.50;99.90;;;;;;5048809;28;20029;-48
2023/03/06 03:14:47;;;;;;;10.13;4.82;;;3.50;99.90;;;;;;5048731;28;20028;-45
2023/03/06 03:17:13;;;;;;;7.75;4.50;;;3.60;99.90;;;;;;5049021;28;20407;-47
2023/03/06 03:19:38;;;;;;;11.30;5.20;;;3.60;99.90;;;;;;5048833;28;20025;-47
2023/03/06 03:22:04;;;;;;;14.95;5.10;;;3.60;99.90;;;;;;5048888;28;20040;-47
2023/03/06 03:24:30;;;;;;;16.35;4.90;;;3.50;99.90;;;;;;5048506;28;20628;-46
2023/03/06 03:26:55;;;;;;;8.40;4.75;;;3.60;99.90;;;;;;5049008;28;20028;-45
2023/03/06 03:29:21;;;;;;;8.52;4.40;;;3.60;99.90;;;;;;5042411;28;20021;-45
2023/03/06 03:31:47;;;;;;;10.00;4.05;;;3.60;99.90;;;;;;5041223;28;20028;-45
2023/03/06 03:34:13;;;;;;;10.52;4.93;;;3.60;99.90;;;;;;5046885;28;20025;-45
2023/03/06 03:36:39;;;;;;;9.63;4.45;;;3.60;99.90;;;;;;5048114;28;20021;-46
2023/03/06 03:39:04;;;;;;;9.15;4.68;;;3.50;99.90;;;;;;5047866;28;20024;-45
2023/03/06 03:41:30;;;;;;;9.93;4.75;;;3.60;99.90;;;;;;5046629;28;20036;-45
2023/03/06 03:43:56;;;;;;;10.55;4.75;;;3.50;99.90;;;;;;5047334;28;20413;-46
2023/03/06 03:46:21;;;;;;;9.45;5.00;;;3.50;99.90;;;;;;5047846;28;20063;-45
2023/03/06 03:48:47;;;;;;;9.65;4.22;;;3.60;99.90;;;;;;5048208;28;20029;-44
2023/03/06 03:51:15;;;;;;;12.18;4.45;;;3.60;99.90;;;;;;5047548;28;20486;-45
2023/03/06 03:53:42;;;;;;;8.52;4.75;;;3.50;99.90;;;;;;5048069;28;20079;-45
2023/03/06 03:56:09;;;;;;;8.63;4.32;;;3.50;99.90;;;;;;5047582;28;20021;-45
2023/03/06 03:58:35;;;;;;;8.00;4.30;;;3.60;99.90;;;;;;5047866;28;20029;-45
2023/03/06 04:01:00;;;;;;;8.40;4.30;;;3.60;99.90;;;;;;5047869;28;20482;-44
2023/03/06 04:03:26;;;;;;;7.80;4.43;;;3.50;99.90;;;;;;5046191;28;20036;-44
2023/03/06 04:05:53;;;;;;;11.60;4.75;;;3.50;99.90;;;;;;5047065;28;20025;-45
2023/03/06 04:08:19;;;;;;;8.70;4.28;;;3.50;99.90;;;;;;5052105;28;20053;-45
2023/03/06 04:10:45;;;;;;;6.47;4.43;;;3.50;99.90;;;;;;5052108;28;20545;-46
2023/03/06 04:13:10;;;;;;;7.55;4.40;;;3.60;99.90;;;;;;5051272;28;20117;-46
2023/03/06 04:15:36;;;;;;;8.68;5.10;;;3.60;99.90;;;;;;5050705;28;20391;-46
2023/03/06 04:18:01;;;;;;;11.52;4.80;;;3.50;99.90;;;;;;5051491;28;20029;-45
2023/03/06 04:20:27;;;;;;;9.35;5.32;;;3.50;99.90;;;;;;5051259;28;20021;-47
2023/03/06 04:22:53;;;;;;;9.30;4.68;;;3.60;99.90;;;;;;5050831;28;20040;-45
2023/03/06 04:25:18;;;;;;;8.68;4.60;;;3.50;99.90;;;;;;5048711;28;20387;-46
2023/03/06 04:27:44;;;;;;;13.10;5.10;;;3.50;99.90;;;;;;5052004;28;20071;-46
2023/03/06 04:30:10;;;;;;;8.95;5.00;;;3.50;99.90;;;;;;5050628;28;20025;-45
2023/03/06 04:32:36;;;;;;;11.15;4.78;;;3.50;99.90;;;;;;5033717;28;20033;-47
2023/03/06 04:35:02;;;;;;;9.90;5.28;;;3.50;99.90;;;;;;5047062;28;20025;-45
2023/03/06 04:37:28;;;;;;;8.57;4.93;;;3.50;99.90;;;;;;5031290;28;20067;-45
2023/03/06 04:39:54;;;;;;;11.45;5.18;;;3.50;99.90;;;;;;5049266;28;20041;-45
2023/03/06 04:42:19;;;;;;;10.38;5.10;;;3.50;99.90;;;;;;5050891;28;20035;-45
2023/03/06 04:44:45;;;;;;;11.32;6.00;;;3.50;99.90;;;;;;5050950;28;20021;-45
2023/03/06 04:47:11;;;;;;;12.90;5.28;;;3.50;99.90;;;;;;5052000;28;20293;-45
2023/03/06 04:49:36;;;;;;;12.07;5.65;;;3.40;99.90;;;;;;5052050;28;20021;-44
2023/03/06 04:52:02;;;;;;;10.43;5.20;;;3.40;99.90;;;;;;5052301;28;20075;-45
2023/03/06 04:54:28;;;;;;;10.23;5.13;;;3.40;99.90;;;;;;5051468;28;20025;-45
2023/03/06 04:56:53;;;;;;;6.78;3.80;;;3.40;99.90;;;;;;5050559;28;20125;-44
2023/03/06 04:59:19;;;;;;;6.95;3.85;;;3.30;99.90;;;;;;5051632;28;20060;-44
2023/03/06 05:01:44;;;;;;;9.38;3.40;;;3.20;99.90;;;;;;5051419;28;20036;-44
2023/03/06 05:04:10;;;;;;;6.13;3.28;;;3.10;99.90;;;;;;5051012;28;20075;-45
2023/03/06 05:06:35;;;;;;;3.10;2.22;;;3.00;99.90;;;;;;5051578;28;20025;-44
2023/03/06 05:09:01;;;;;;;3.28;2.33;;;3.00;99.90;;;;;;5051383;28;20021;-46
2023/03/06 05:11:26;;;;;;;5.25;2.03;;;2.90;99.90;;;;;;5051155;28;20052;-45
2023/03/06 05:13:52;;;;;;;2.25;1.83;;;2.80;99.90;;;;;;5050973;28;20037;-45
2023/03/06 05:16:17;;;;;;;3.72;2.67;;;2.80;99.90;;;;;;5051358;28;20044;-45
2023/03/06 05:18:43;;;;;;;2.45;2.00;;;2.80;99.90;;;;;;5047294;28;20025;-46
2023/03/06 05:21:09;;;;;;;2.40;2.20;;;2.80;99.90;;;;;;5051218;28;20025;-46
2023/03/06 05:23:37;;;;;;;2.13;1.70;;;2.80;99.90;;;;;;5050805;28;20017;-46
2023/03/06 05:26:13;;;;;;;2.92;2.08;;;2.70;99.90;;;;;;5050749;28;20032;-46
2023/03/06 05:28:38;;;;;;;2.65;2.10;;;2.70;99.90;;;;;;5051229;28;20028;-46
2023/03/06 05:31:04;;;;;;;3.00;2.10;;;2.70;99.90;;;;;;5049956;28;20435;-46
2023/03/06 05:33:32;;;;;;;5.38;2.13;;;2.70;99.90;;;;;;5051032;28;20021;-46
2023/03/06 05:35:57;;;;;;;3.00;2.03;;;2.70;99.90;;;;;;5050820;28;20124;-46
2023/03/06 05:38:23;;;;;;;3.58;2.13;;;2.70;99.90;;;;;;5050654;28;20175;-45
2023/03/06 05:40:48;;;;;;;2.90;2.22;;;2.70;99.90;;;;;;5051113;28;20021;-45
2023/03/06 05:43:14;;;;;;;4.93;2.95;;;2.60;99.90;;;;;;5050694;28;20180;-45
2023/03/06 05:45:40;;;;;;;3.47;2.30;;;2.60;99.90;;;;;;5048871;28;20039;-46
2023/03/06 05:48:06;;;;;;;4.50;2.53;;;2.60;99.90;;;;;;5050647;28;20371;-46
2023/03/06 05:50:32;;;;;;;4.85;2.72;;;2.60;99.90;;;;;;5050671;28;20395;-48
2023/03/06 05:52:58;;;;;;;2.92;1.75;;;2.60;99.90;;;;;;5051153;28;20100;-46
2023/03/06 05:55:23;;;;;;;3.28;2.00;;;2.60;99.90;;;;;;5050719;28;20033;-46
2023/03/06 05:57:50;;;;;;;2.83;2.20;;;2.50;99.90;;;;;;5049134;28;20486;-45
2023/03/06 06:00:17;;;;;;;3.72;1.80;;;2.50;99.90;;;;;;5050761;28;20028;-46
2023/03/06 06:02:43;;;;;;;2.65;2.13;;;2.50;99.90;;;;;;5050435;28;20036;-45
2023/03/06 06:05:09;;;;;;;5.32;2.40;;;2.40;99.90;;;;;;5048751;28;20025;-45
2023/03/06 06:07:35;;;;;;;4.07;2.67;;;2.40;99.90;;;;;;5050398;28;20025;-46
2023/03/06 06:10:01;;;;;;;3.33;2.15;;;2.40;99.90;;;;;;5050125;28;20055;-46
2023/03/06 06:12:27;;;;;;;2.00;1.80;;;2.40;99.90;;;;;;5049930;28;20441;-45
2023/03/06 06:14:52;;;;;;;1.80;1.50;;;2.30;99.90;;;;;;5049916;28;20052;-46
2023/03/06 06:17:18;;;;;;;1.90;1.40;;;2.20;99.90;;;;;;5050355;28;20390;-46
2023/03/06 06:19:43;;;;;;;1.98;1.48;;;2.20;99.90;;;;;;5050587;28;20364;-46
2023/03/06 06:22:09;;;;;;;1.30;1.05;;;2.20;99.90;;;;;;5050078;28;20530;-47
2023/03/06 06:24:35;;;;;;;3.45;1.25;;;2.10;99.90;;;;;;5049620;28;20025;-46
2023/03/06 06:27:00;;;;;;;1.55;1.35;;;2.10;99.90;;;;;;5047558;28;20048;-45
2023/03/06 06:29:27;;;;;;;2.22;1.55;;;2.00;99.90;;;;;;5045639;28;20549;-40
2023/03/06 06:31:53;;;;;;;3.72;1.20;;;2.00;99.90;;;;;;5047666;28;20275;-48
2023/03/06 06:34:21;;;;;;;2.05;1.27;;;1.90;99.90;;;;;;5049319;28;20474;-48
2023/03/06 06:36:49;;;;;;;5.03;1.20;;;1.90;99.90;;;;;;5047983;28;20086;-47
2023/03/06 06:39:16;;;;;;;2.55;1.10;;;1.90;99.90;;;;;;5049042;28;20465;-39
2023/03/06 06:41:42;;;;;;;10.20;1.23;;;1.80;99.90;;;;;;5049589;28;20324;-46
2023/03/06 06:44:11;;;;;;;5.35;1.15;;;1.90;99.90;;;;;;5049210;28;20278;-46
2023/03/06 06:46:37;;;;;;;1.65;1.00;;;1.70;99.90;;;;;;5048926;28;20043;-46
2023/03/06 06:49:02;;;;;;;2.58;0.70;;;1.70;99.90;;;;;;5048057;28;20029;-45
2023/03/06 06:51:32;;;;;;;2.28;1.10;;;1.70;99.90;;;;;;5047813;28;20167;-46
2023/03/06 06:54:00;;;;;;;1.93;1.53;;;1.80;99.90;;;;;;5048079;28;20103;-49
2023/03/06 06:56:26;;;;;;;1.25;1.05;;;1.80;99.90;;;;;;5049474;28;20278;-46
2023/03/06 06:58:58;;;;;;;5.03;1.05;;;1.80;99.90;;;;;;5049194;28;20033;-46
2023/03/06 07:01:24;;;;;;;4.15;1.15;;;1.80;99.90;;;;;;5049523;28;20028;-46
2023/03/06 07:03:49;;;;;;;1.75;1.00;;;1.80;99.90;;;;;;5048786;28;20033;-45
2023/03/06 07:06:15;;;;;;;1.90;1.02;;;1.80;99.90;;;;;;5049031;28;20029;-45
2023/03/06 07:08:40;;;;;;;3.80;1.20;;;1.70;99.90;;;;;;5048632;28;20068;-47
2023/03/06 07:11:10;;;;;;;2.90;1.48;;;1.80;99.90;;;;;;5048194;28;20083;-49
2023/03/06 07:13:35;;;;;;;1.98;1.30;;;1.80;99.90;;;;;;5048457;28;20586;-46
2023/03/06 07:16:01;;;;;;;5.90;1.50;;;1.80;99.90;;;;;;5047379;28;20115;-46
2023/03/06 07:18:27;;;;;;;2.58;1.05;;;1.80;99.90;;;;;;5049021;28;20035;-47
2023/03/06 07:20:53;;;;;;;2.00;1.30;;;1.80;99.90;;;;;;5048060;28;20649;-46
2023/03/06 07:23:19;;;;;;;2.92;1.40;;;1.90;99.90;;;;;;5047250;28;20040;-46
2023/03/06 07:25:45;;;;;;;1.73;1.20;;;1.90;99.90;;;;;;5047056;28;20029;-46
2023/03/06 07:28:10;;;;;;;1.88;1.40;;;1.90;99.90;;;;;;5046819;28;20035;-47
2023/03/06 07:30:36;;;;;;;3.38;1.77;;;1.90;99.90;;;;;;5046753;28;20051;-39
2023/03/06 07:33:01;;;;;;;3.38;1.70;;;1.90;99.90;;;;;;5042214;28;20026;-46
2023/03/06 07:35:27;;;;;;;3.70;1.50;;;1.90;99.90;;;;;;5044810;28;20112;-45
2023/03/06 07:37:53;;;;;;;2.83;1.45;;;1.90;99.90;;;;;;5046837;28;20043;-39
2023/03/06 07:40:19;;;;;;;2.60;1.10;;;1.90;99.90;;;;;;5048479;28;20020;-39
2023/03/06 07:42:45;;;;;;;2.40;1.08;;;1.90;99.90;;;;;;5048044;28;20025;-39
2023/03/06 07:45:11;;;;;;;1.65;0.65;;;1.90;99.90;;;;;;5047763;28;20078;-39
2023/03/06 07:47:38;;;;;;;2.15;1.05;;;1.90;99.90;;;;;;5046664;28;20033;-39
2023/03/06 07:50:06;;;;;;;3.58;1.05;;;1.90;99.90;;;;;;5048632;28;20033;-39
2023/03/06 07:52:32;;;;;;;1.27;0.98;;;1.90;99.90;;;;;;5048715;28;20039;-39
2023/03/06 07:54:57;;;;;;;2.85;1.92;;;1.90;99.90;;;;;;5047565;28;20033;-39
2023/03/06 07:57:23;;;;;;;2.08;1.42;;;2.00;99.90;;;;;;5048178;28;20025;-39
2023/03/06 07:59:48;;;;;;;1.35;1.20;;;2.10;99.90;;;;;;5048316;28;20035;-39
2023/03/06 08:02:14;;;;;;;2.53;1.17;;;2.10;99.90;;;;;;5048461;28;20406;-39
2023/03/06 08:04:40;;;;;;;1.38;1.20;;;2.10;99.90;;;;;;5047049;28;20025;-45
2023/03/06 08:07:05;;;;;;;1.60;1.20;;;2.10;99.90;;;;;;5048235;28;20027;-45
2023/03/06 08:09:30;;;;;;;2.28;2.08;;;2.10;99.90;;;;;;5048466;28;20567;-45
2023/03/06 08:11:56;;;;;;;1.85;1.63;;;2.00;99.90;;;;;;5048585;28;20028;-46
2023/03/06 08:14:22;;;;;;;1.48;1.33;;;2.00;99.90;;;;;;5046919;28;20025;-45
2023/03/06 08:16:49;;;;;;;2.03;1.35;;;2.00;99.90;;;;;;5048578;28;20087;-46
2023/03/06 08:19:15;;;;;;;4.85;1.70;;;2.10;99.90;;;;;;5048108;28;20017;-45
2023/03/06 08:21:40;;;;;;;3.95;1.58;;;2.10;99.90;;;;;;5048420;28;20118;-45
2023/03/06 08:24:06;;;;;;;6.95;2.40;;;2.10;99.90;;;;;;5048079;28;20049;-44
2023/03/06 08:26:32;;;;;;;3.85;2.00;;;2.10;99.90;;;;;;5047719;28;20049;-44
2023/03/06 08:29:00;;;;;;;5.63;2.13;;;2.10;99.90;;;;;;5048314;28;20029;-44
2023/03/06 08:31:30;;;;;;;5.32;2.40;;;2.00;99.90;;;;;;5047086;28;20486;-45
2023/03/06 08:33:58;;;;;;;2.97;2.20;;;2.00;99.90;;;;;;5046678;28;20032;-45
2023/03/06 08:36:23;;;;;;;2.72;2.03;;;2.00;99.90;;;;;;5047158;28;20029;-46
2023/03/06 08:38:50;;;;;;;6.22;2.15;;;2.00;99.90;;;;;;5048211;28;20036;-45
2023/03/06 08:41:16;;;;;;;3.85;2.40;;;2.10;99.90;;;;;;5047970;28;20013;-46
2023/03/06 08:43:42;;;;;;;5.95;2.60;;;2.00;99.90;;;;;;5047014;28;20040;-45
2023/03/06 08:46:09;;;;;;;4.68;2.97;;;2.00;99.90;;;;;;5046895;28;20084;-45
2023/03/06 08:48:35;;;;;;;4.28;2.53;;;2.10;99.90;;;;;;5047952;28;20521;-47
2023/03/06 08:51:01;;;;;;;4.20;2.63;;;2.00;99.90;;;;;;5047876;28;20025;-45
2023/03/06 08:53:27;;;;;;;4.80;2.45;;;2.00;99.90;;;;;;5049336;28;20033;-45
2023/03/06 08:55:52;;;;;;;6.15;2.85;;;2.10;99.90;;;;;;5051552;28;20490;-45
2023/03/06 08:58:18;;;;;;;4.13;2.35;;;2.10;99.90;;;;;;5051402;28;20029;-39
2023/03/06 09:00:43;;;;;;;5.18;2.88;;;2.10;99.90;;;;;;5051795;28;20052;-39
2023/03/06 09:03:09;;;;;;;5.53;3.10;;;2.10;99.90;;;;;;5051530;28;20098;-39
2023/03/06 09:05:34;;;;;;;4.50;3.35;;;2.10;99.90;;;;;;5051555;28;20021;-45
2023/03/06 09:08:00;;;;;;;6.15;3.63;;;2.10;99.90;;;;;;5051545;28;20029;-45
2023/03/06 09:10:26;;;;;;;7.55;3.13;;;2.10;99.90;;;;;;5051663;28;20029;-45
2023/03/06 09:12:53;;;;;;;4.85;3.22;;;2.10;99.90;;;;;;5051422;28;20036;-45
2023/03/06 09:15:19;;;;;;;7.55;3.83;;;2.10;99.90;;;;;;5051190;28;20033;-44
2023/03/06 09:17:46;;;;;;;7.15;3.47;;;2.10;99.90;;;;;;5051460;28;20031;-45
2023/03/06 09:20:12;;;;;;;3.10;2.25;;;2.20;99.90;;;;;;5051631;28;20036;-45
2023/03/06 09:22:38;;;;;;;3.70;2.47;;;2.20;99.90;;;;;;5051102;28;20021;-39
2023/03/06 09:25:05;;;;;;;5.10;1.75;;;2.20;99.90;;;;;;5050822;28;20098;-39
2023/03/06 09:27:30;;;;;;;4.00;1.40;;;2.20;99.90;;;;;;5050985;28;20359;-39
2023/03/06 09:29:56;;;;;;;2.50;1.50;;;2.10;99.90;;;;;;5050215;28;20112;-39
2023/03/06 09:32:22;;;;;;;4.60;1.70;;;2.10;99.90;;;;;;5050955;28;20383;-39
2023/03/06 09:34:48;;;;;;;2.15;1.52;;;2.10;99.90;;;;;;5051028;28;20032;-39
2023/03/06 09:37:14;;;;;;;2.88;1.67;;;2.10;99.90;;;;;;5051094;28;20233;-39
2023/03/06 09:39:40;;;;;;;3.42;1.60;;;2.10;99.90;;;;;;5051388;28;20029;-39
2023/03/06 09:42:07;;;;;;;3.50;1.60;;;2.10;99.90;;;;;;5050622;28;20079;-39
2023/03/06 09:44:35;;;;;;;2.90;1.90;;;2.10;99.90;;;;;;5050202;28;20025;-39
2023/03/06 09:47:30;;;;;;;3.90;1.67;;;2.10;99.90;;;;;;5050937;28;20029;-39
2023/03/06 09:50:03;;;;;;;2.78;2.15;;;2.10;99.90;;;;;;5036302;28;20112;-44
2023/03/06 09:52:29;;;;;;;4.40;2.10;;;2.10;99.90;;;;;;5050868;28;20023;-46
2023/03/06 09:55:15;;;;;;;3.08;2.08;;;2.10;99.90;;;;;;5050521;28;20116;-46
2023/03/06 09:57:54;;;;;;;2.90;2.28;;;2.10;99.90;;;;;;5050644;28;20489;-38
2023/03/06 10:00:27;;;;;;;3.30;2.35;;;2.10;99.90;;;;;;5050238;28;20029;-39
2023/03/06 10:03:02;;;;;;;3.10;2.22;;;2.20;99.90;;;;;;5050300;28;20100;-38
2023/03/06 10:05:42;;;;;;;4.40;1.95;;;2.20;99.90;;;;;;5049307;28;20240;-38
2023/03/06 10:08:29;;;;;;;4.43;2.47;;;2.20;99.90;;;;;;5050004;28;20056;-38
2023/03/06 10:11:05;;;;;;;7.35;2.47;;;2.20;99.90;;;;;;5050460;28;20071;-39
2023/03/06 10:13:44;;;;;;;3.90;2.58;;;2.20;99.90;;;;;;5050256;28;20028;-39
2023/03/06 10:16:22;;;;;;;3.42;2.20;;;2.20;99.90;;;;;;5050355;28;20031;-39
2023/03/06 10:18:48;;;;;;;5.13;2.40;;;2.20;99.90;;;;;;5050250;28;20021;-39
2023/03/06 10:21:42;;;;;;;4.20;2.45;;;2.30;99.90;;;;;;5050099;28;20025;-39
2023/03/06 10:24:23;;;;;;;2.65;2.35;;;2.30;99.90;;;;;;5049533;28;20383;-39
2023/03/06 10:27:00;;;;;;;4.05;2.20;;;2.20;99.90;;;;;;5050023;28;20021;-39
2023/03/06 10:29:52;;;;;;;3.65;2.38;;;2.20;99.90;;;;;;5049747;28;20033;-39
2023/03/06 10:32:38;;;;;;;3.00;2.03;;;2.30;99.90;;;;;;5049945;28;20032;-39
2023/03/06 10:35:14;;;;;;;6.38;3.60;;;2.30;99.90;;;;;;5029769;28;20030;-39
2023/03/06 10:37:39;;;;;;;5.13;3.28;;;2.40;99.90;;;;;;5030126;28;21928;-39
2023/03/06 10:40:20;;;;;;;5.70;2.78;;;2.50;99.90;;;;;;5047682;28;20041;-39
2023/03/06 10:42:46;;;;;;;3.05;2.58;;;2.60;99.90;;;;;;5049495;28;20043;-39
2023/03/06 10:45:13;;;;;;;2.65;2.25;;;2.70;99.90;;;;;;5049353;28;20389;-39
2023/03/06 10:47:40;;;;;;;3.28;1.92;;;2.80;99.90;;;;;;5049477;28;20028;-39
2023/03/06 10:50:25;;;;;;;3.58;2.25;;;2.90;99.90;;;;;;5049011;28;20025;-39
2023/03/06 10:53:03;;;;;;;2.88;2.10;;;2.90;99.90;;;;;;5049866;28;20429;-39
2023/03/06 10:55:32;;;;;;;2.63;1.90;;;2.90;99.90;;;;;;5048730;28;20025;-39
2023/03/06 10:58:15;;;;;;;3.13;2.20;;;2.80;99.90;;;;;;5048052;28;20150;-39
2023/03/06 11:00:40;;;;;;;2.10;1.90;;;2.90;99.90;;;;;;5049421;28;20113;-39
2023/03/06 11:03:15;;;;;;;2.38;2.00;;;2.90;99.90;;;;;;5049860;28;20163;-39
2023/03/06 11:05:53;;;;;;;3.50;1.95;;;3.00;99.90;;;;;;5048852;28;20468;-39
2023/03/06 11:08:21;;;;;;;3.08;1.90;;;3.00;99.90;;;;;;5049211;28;20399;-39
2023/03/06 11:10:55;;;;;;;3.70;2.33;;;2.90;99.90;;;;;;5047564;28;20318;-39
2023/03/06 11:13:24;;;;;;;3.42;2.20;;;2.90;99.90;;;;;;5049356;28;20027;-39
2023/03/06 11:16:06;;;;;;;3.42;2.13;;;3.00;99.90;;;;;;5048109;28;20629;-39
2023/03/06 11:18:38;;;;;;;4.03;2.22;;;2.90;99.90;;;;;;5049089;28;20035;-39
2023/03/06 11:21:31;;;;;;;3.78;2.45;;;2.80;99.90;;;;;;5045568;28;20081;-39
2023/03/06 11:24:05;;;;;;;2.65;2.13;;;2.90;99.90;;;;;;5047522;28;20071;-39
2023/03/06 11:26:40;;;;;;;5.80;2.33;;;2.90;99.90;;;;;;5049155;28;20021;-39
2023/03/06 11:29:26;;;;;;;3.80;2.13;;;3.10;99.90;;;;;;5048827;28;20036;-39
2023/03/06 11:32:10;;;;;;;3.65;2.20;;;3.20;99.90;;;;;;5049343;28;20120;-39
2023/03/06 11:34:38;;;;;;;2.30;2.03;;;3.20;99.90;;;;;;5048666;28;20025;-39
2023/03/06 11:37:22;;;;;;;2.72;1.95;;;3.40;99.90;;;;;;5048968;28;20025;-39
2023/03/06 11:40:04;;;;;;;2.47;2.10;;;3.30;99.90;;;;;;5038635;28;20029;-39
2023/03/06 11:42:37;;;;;;;5.07;1.98;;;3.50;99.90;;;;;;5049122;28;20021;-39
2023/03/06 11:45:27;;;;;;;3.25;2.03;;;3.50;99.90;;;;;;5046840;28;20040;-39
2023/03/06 11:48:15;;;;;;;2.88;2.03;;;3.60;99.90;;;;;;5048717;28;20469;-39
2023/03/06 11:50:47;;;;;;;2.92;1.90;;;3.60;99.90;;;;;;5048358;28;20056;-39
2023/03/06 11:53:41;;;;;;;4.50;2.10;;;3.70;99.90;;;;;;5047538;28;20025;-39
2023/03/06 11:56:18;;;;;;;3.67;1.60;;;3.80;99.90;;;;;;5042561;28;20052;-39
2023/03/06 11:58:58;;;;;;;2.35;1.63;;;3.80;99.90;;;;;;5048509;28;20017;-39
2023/03/06 12:01:51;;;;;;;2.95;1.30;;;3.90;99.90;;;;;;5048931;28;20379;-39
2023/03/06 12:04:19;;;;;;;1.63;1.23;;;4.00;99.90;;;;;;5046887;28;20025;-39
2023/03/06 12:07:00;;;;;;;2.22;1.40;;;4.10;99.90;;;;;;5048281;28;20045;-39
2023/03/06 12:09:50;;;;;;;2.05;1.30;;;4.20;99.90;;;;;;5048594;28;20021;-39
2023/03/06 12:12:34;;;;;;;3.65;2.13;;;4.20;99.90;;;;;;5036898;28;20064;-39
2023/03/06 12:15:13;;;;;;;3.47;1.50;;;4.30;99.90;;;;;;5047895;28;20060;-39
2023/03/06 12:17:42;;;;;;;2.45;1.33;;;4.40;99.90;;;;;;5048044;28;20719;-45
2023/03/06 12:20:38;;;;;;;2.05;1.35;;;4.40;99.90;;;;;;5047948;28;20063;-45
2023/03/06 12:23:22;;;;;;;3.17;1.50;;;4.30;99.90;;;;;;5046421;28;20032;-48
2023/03/06 12:26:21;;;;;;;2.40;1.30;;;4.30;99.90;;;;;;5048208;28;20103;-45
2023/03/06 12:29:01;;;;;;;3.40;1.50;;;4.50;99.90;;;;;;5052182;28;20028;-45
2023/03/06 12:31:57;;;;;;;2.70;2.00;;;4.50;99.90;;;;;;5050744;28;20029;-47
2023/03/06 12:34:48;;;;;;;2.30;1.48;;;4.40;99.90;;;;;;5052284;28;20025;-45
2023/03/06 12:37:33;;;;;;;;;;;4.50;99.90;;;;;;5053163;28;20056;-48
2023/03/06 12:40:17;;;;;;;2.10;1.40;;;4.40;99.90;;;;;;5050941;28;19909;-45
2023/03/06 12:42:57;;;;;;;2.05;1.40;;;4.50;99.90;;;;;;5052155;28;20075;-45
2023/03/06 12:45:33;;;;;;;3.30;1.75;;;4.50;99.90;;;;;;5052098;28;20025;-45
2023/03/06 12:48:00;;;;;;;3.25;1.67;;;4.60;99.90;;;;;;5052127;28;20041;-45
2023/03/06 12:50:37;;;;;;;3.70;1.60;;;4.70;99.90;;;;;;5052272;28;20549;-45
2023/03/06 12:53:11;;;;;;;2.80;1.60;;;4.90;99.90;;;;;;5050543;28;20033;-45
2023/03/06 12:55:42;;;;;;;3.35;1.52;;;5.00;99.90;;;;;;5052319;28;20378;-46
2023/03/06 12:58:26;;;;;;;2.70;1.52;;;5.20;99.90;;;;;;5052170;28;20470;-45
2023/03/06 13:01:01;;;;;;;2.28;1.45;;;5.50;99.90;;;;;;5051673;28;20029;-45
2023/03/06 13:03:29;;;;;;;3.85;1.67;;;5.70;99.90;;;;;;5050905;28;20017;-46
2023/03/06 13:06:21;;;;;;;2.85;1.67;;;5.80;99.90;;;;;;5051514;28;20053;-45